Time;durP1;ratioP1;P1;durP2;ratioP2;P2;SDS_P1;SDS_P2;PMS_P1;PMS_P2;Temp;Humidity;BMP_temperature;BMP_pressure;BME280_temperature;BME280_humidity;BME280_pressure;Samples;Min_cycle;Max_cycle;Signal;HPM_P1;HPM_P2
2022/08/10 00:00:19;;;;;;;4.10;2.07;;;;;;;14.26;100.00;101397.09;7390875;19;20434;-60
2022/08/10 00:02:20;;;;;;;7.80;2.30;;;;;;;14.17;100.00;101410.63;7379876;19;20405;-60
2022/08/10 00:04:49;;;;;;;5.87;2.43;;;;;;;14.11;100.00;101425.94;7393154;19;20474;-60
2022/08/10 00:07:19;;;;;;;5.77;2.10;;;;;;;14.14;100.00;101436.47;7378433;19;20406;-59
2022/08/10 00:09:49;;;;;;;6.23;2.10;;;;;;;14.11;100.00;101451.03;7391300;19;20486;-59
2022/08/10 00:12:19;;;;;;;5.57;2.07;;;;;;;14.11;100.00;101476.97;7379177;19;20415;-60
2022/08/10 00:14:52;;;;;;;3.40;2.07;;;;;;;14.12;100.00;101490.03;7394597;19;20397;-59
2022/08/10 00:17:21;;;;;;;8.67;2.73;;;;;;;14.11;100.00;101514.16;7374650;19;20405;-60
2022/08/10 00:19:51;;;;;;;8.43;2.77;;;;;;;14.14;100.00;101529.88;7385146;19;20413;-60
2022/08/10 00:22:37;;;;;;;5.07;2.70;;;;;;;14.13;100.00;101533.31;7380764;19;20447;-59
2022/08/10 00:25:21;;;;;;;3.97;2.03;;;;;;;14.13;100.00;101554.06;7388018;19;20394;-59
2022/08/10 00:27:50;;;;;;;3.50;2.60;;;;;;;14.11;100.00;101581.63;7364508;19;20417;-60
2022/08/10 00:30:35;;;;;;;4.20;2.70;;;;;;;14.06;100.00;101592.66;7391758;19;20438;-59
2022/08/10 00:33:04;;;;;;;6.70;2.23;;;;;;;13.95;100.00;101602.59;7384044;19;20988;-60
2022/08/10 00:35:35;;;;;;;5.00;2.40;;;;;;;14.07;100.00;101643.72;7391272;19;20509;-59
2022/08/10 00:38:04;;;;;;;3.23;2.33;;;;;;;14.14;100.00;101671.69;7373936;19;20417;-59
2022/08/10 00:40:34;;;;;;;3.33;2.50;;;;;;;14.02;100.00;101674.69;7386926;19;20479;-59
2022/08/10 00:43:06;;;;;;;5.00;2.50;;;;;;;13.90;100.00;101681.13;7372253;19;20966;-59
2022/08/10 00:45:39;;;;;;;4.37;2.53;;;;;;;13.88;100.00;101715.59;7388264;19;20947;-60
2022/08/10 00:48:08;;;;;;;6.10;2.43;;;;;;;13.87;100.00;101744.94;7374981;19;20411;-59
2022/08/10 00:50:38;;;;;;;4.77;2.40;;;;;;;13.75;100.00;101753.09;7387272;19;20421;-59
2022/08/10 00:53:07;;;;;;;5.73;2.80;;;;;;;13.62;100.00;101772.38;7375287;19;20934;-60
2022/08/10 00:55:37;;;;;;;7.67;3.40;;;;;;;13.81;100.00;101814.72;7388413;19;20402;-59
2022/08/10 00:58:27;;;;;;;4.83;2.60;;;;;;;13.88;100.00;101841.00;7374646;19;20427;-59
2022/08/10 01:00:59;;;;;;;5.53;2.47;;;;;;;13.68;100.00;101834.03;7386557;19;20451;-59
2022/08/10 01:03:28;;;;;;;5.10;2.70;;;;;;;13.50;100.00;101851.34;7376328;19;20506;-60
2022/08/10 01:06:25;;;;;;;4.80;2.60;;;;;;;13.44;100.00;101899.41;7395597;19;20430;-59
2022/08/10 01:09:02;;;;;;;5.07;2.70;;;;;;;13.53;100.00;101967.28;7381133;19;20465;-60
2022/08/10 01:11:35;;;;;;;3.67;2.30;;;;;;;13.62;100.00;102017.03;7395927;19;20391;-61
2022/08/10 01:14:31;;;;;;;5.20;2.80;;;;;;;13.63;100.00;102031.75;7394112;19;20407;-59
2022/08/10 01:17:07;;;;;;;6.40;3.13;;;;;;;13.73;100.00;102065.91;7387907;19;20383;-60
2022/08/10 01:19:49;;;;;;;4.53;2.50;;;;;;;13.63;100.00;102070.66;7395303;19;20744;-59
2022/08/10 01:22:33;;;;;;;5.60;3.63;;;;;;;13.57;100.00;102067.75;7383868;19;20394;-60
2022/08/10 01:25:26;;;;;;;3.23;2.20;;;;;;;13.35;100.00;102095.13;7397792;19;20404;-60
2022/08/10 01:28:03;;;;;;;4.80;3.20;;;;;;;13.26;100.00;102198.34;7381096;19;20967;-60
2022/08/10 01:30:37;;;;;;;3.30;2.33;;;;;;;13.18;100.00;102287.75;7394737;19;20415;-60
2022/08/10 01:33:10;;;;;;;4.83;2.90;;;;;;;13.26;100.00;102422.91;7370080;19;20766;-60
2022/08/10 01:35:45;;;;;;;5.47;2.93;;;;;;;13.24;100.00;102487.66;7397273;19;20456;-60
2022/08/10 01:38:19;;;;;;;6.20;2.30;;;;;;;13.22;100.00;102541.06;7385997;19;20444;-61
2022/08/10 01:40:53;;;;;;;168.23;94.20;;;;;;;13.36;100.00;102605.03;7395262;19;20418;-60
2022/08/10 01:43:23;;;;;;;26.87;16.37;;;;;;;13.75;100.00;102674.75;7382828;19;20971;-60
2022/08/10 01:45:57;;;;;;;5.50;4.00;;;;;;;13.48;100.00;102637.69;7397268;19;20374;-60
2022/08/10 01:48:30;;;;;;;13.40;9.13;;;;;;;13.39;100.00;102648.38;7384881;19;20435;-60
2022/08/10 01:51:21;;;;;;;39.23;26.40;;;;;;;13.67;100.00;102677.69;7397581;19;20401;-60
2022/08/10 01:53:54;;;;;;;11.97;7.27;;;;;;;13.69;100.00;102670.91;7383058;19;20417;-60
2022/08/10 01:56:27;;;;;;;33.60;20.97;;;;;;;13.77;100.00;102664.47;7397747;19;20386;-60
2022/08/10 01:58:59;;;;;;;7.60;3.67;;;;;;;13.50;100.00;102633.50;7382492;19;21033;-60
2022/08/10 02:01:42;;;;;;;7.03;2.17;;;;;;;13.31;100.00;102626.28;7397301;19;20402;-60
2022/08/10 02:04:13;;;;;;;4.17;2.20;;;;;;;13.15;100.00;102645.19;7362000;19;20760;-60
2022/08/10 02:06:45;;;;;;;5.37;2.87;;;;;;;13.12;100.00;102666.63;7398623;19;20915;-60
2022/08/10 02:09:21;;;;;;;4.57;2.40;;;;;;;13.01;100.00;102691.88;7379586;19;20448;-60
2022/08/10 02:11:52;;;;;;;3.73;2.57;;;;;;;13.03;100.00;102733.44;7396762;19;20468;-60
2022/08/10 02:14:38;;;;;;;8.20;2.33;;;;;;;13.00;100.00;102778.19;7390852;19;20504;-60
2022/08/10 02:17:13;;;;;;;4.43;2.93;;;;;;;12.97;100.00;102811.66;7381070;19;21187;-60
2022/08/10 02:20:07;;;;;;;3.73;2.40;;;;;;;12.94;100.00;102884.91;7394925;19;21034;-60
2022/08/10 02:22:37;;;;;;;4.50;2.87;;;;;;;12.92;100.00;102925.34;7382812;19;20404;-60
2022/08/10 02:25:09;;;;;;;5.77;3.40;;;;;;;12.95;100.00;102973.88;7396499;19;20407;-60
2022/08/10 02:27:59;;;;;;;87.43;44.13;;;;;;;13.05;100.00;103015.19;7387454;19;20459;-60
2022/08/10 02:30:29;;;;;;;60.47;32.17;;;;;;;13.08;100.00;103028.34;7394257;19;20412;-60
2022/08/10 02:33:02;;;;;;;51.23;27.33;;;;;;;13.14;100.00;103040.84;7387542;19;20414;-60
2022/08/10 02:35:33;;;;;;;9.83;4.70;;;;;;;13.10;100.00;103039.72;7396705;19;20392;-60
2022/08/10 02:38:27;;;;;;;63.90;31.83;;;;;;;13.32;100.00;103048.94;7386477;19;20433;-60
2022/08/10 02:41:20;;;;;;;6.23;3.77;;;;;;;13.33;100.00;103045.53;7396065;19;20399;-60
2022/08/10 02:44:12;;;;;;;10.40;6.13;;;;;;;13.33;100.00;103048.13;7387843;19;20497;-60
2022/08/10 02:47:07;;;;;;;31.60;17.10;;;;;;;13.34;100.00;103042.16;7387165;19;20379;-60
2022/08/10 02:49:43;;;;;;;13.30;7.83;;;;;;;13.32;100.00;103035.97;7393003;19;20438;-60
2022/08/10 02:52:18;;;;;;;8.60;4.67;;;;;;;13.32;100.00;103033.38;7378429;19;20388;-60
2022/08/10 02:54:53;;;;;;;7.60;2.77;;;;;;;13.19;100.00;103035.94;7395692;19;20407;-60
2022/08/10 02:57:27;;;;;;;5.70;3.57;;;;;;;13.06;100.00;103027.34;7382619;19;20408;-60
2022/08/10 03:00:00;;;;;;;5.50;3.47;;;;;;;13.01;100.00;103033.00;7393270;19;20405;-60
2022/08/10 03:02:34;;;;;;;11.50;4.73;;;;;;;12.92;100.00;103044.53;7381699;19;20417;-60
2022/08/10 03:05:09;;;;;;;8.97;5.60;;;;;;;12.89;100.00;103030.47;7395435;19;20398;-60
2022/08/10 03:07:41;;;;;;;7.30;4.60;;;;;;;12.82;100.00;103030.06;7380144;19;20418;-60
2022/08/10 03:10:17;;;;;;;7.87;5.10;;;;;;;12.87;100.00;103032.06;7392505;19;20429;-60
2022/08/10 03:12:50;;;;;;;10.37;6.60;;;;;;;12.87;100.00;103048.50;7380575;19;20948;-60
2022/08/10 03:15:21;;;;;;;9.33;5.47;;;;;;;12.87;100.00;103042.44;7394910;19;20746;-60
2022/08/10 03:17:51;;;;;;;10.57;5.53;;;;;;;12.91;100.00;103059.97;7381075;19;20433;-60
2022/08/10 03:20:32;;;;;;;8.57;5.50;;;;;;;12.89;100.00;103079.69;7392924;19;20856;-60
2022/08/10 03:23:10;;;;;;;8.03;5.83;;;;;;;13.02;100.00;103113.44;7381158;19;20493;-60
2022/08/10 03:25:41;;;;;;;7.43;4.63;;;;;;;12.96;100.00;103269.41;7394645;19;20388;-60
2022/08/10 03:28:23;;;;;;;12.07;5.30;;;;;;;12.96;100.00;103339.34;7379733;19;20447;-60
2022/08/10 03:30:53;;;;;;;4.90;3.60;;;;;;;12.95;100.00;103357.38;7393065;19;20460;-60
2022/08/10 03:33:24;;;;;;;6.57;3.90;;;;;;;13.01;100.00;103352.66;7381373;19;20423;-60
2022/08/10 03:35:56;;;;;;;8.00;3.80;;;;;;;12.99;100.00;103330.91;7394575;19;20397;-60
2022/08/10 03:38:50;;;;;;;7.77;3.90;;;;;;;12.98;100.00;103334.28;7356958;19;20400;-60
2022/08/10 03:41:24;;;;;;;6.13;4.40;;;;;;;12.99;100.00;103337.78;7393785;19;20474;-60
2022/08/10 03:43:59;;;;;;;5.67;3.27;;;;;;;12.95;100.00;103340.16;7380577;19;20763;-60
2022/08/10 03:46:29;;;;;;;5.27;3.53;;;;;;;12.98;100.00;103362.81;7393940;19;20405;-60
2022/08/10 03:49:03;;;;;;;6.20;4.13;;;;;;;13.01;100.00;103360.41;7378994;19;20424;-60
2022/08/10 03:51:36;;;;;;;6.30;3.67;;;;;;;13.02;100.00;103349.25;7393975;19;20376;-60
2022/08/10 03:54:06;;;;;;;6.30;4.10;;;;;;;13.02;100.00;103338.88;7380133;19;20407;-60
2022/08/10 03:56:40;;;;;;;5.13;3.80;;;;;;;13.06;100.00;103335.75;7393821;19;20391;-60
2022/08/10 03:59:13;;;;;;;4.53;3.33;;;;;;;12.99;100.00;103343.88;7378725;19;20464;-60
2022/08/10 04:01:43;;;;;;;7.10;3.70;;;;;;;12.95;100.00;103341.84;7393496;19;20381;-60
2022/08/10 04:04:32;;;;;;;7.93;4.10;;;;;;;12.93;100.00;103340.81;7392494;19;20412;-60
2022/08/10 04:07:05;;;;;;;8.40;5.30;;;;;;;13.02;100.00;103348.38;7383528;19;20927;-60
2022/08/10 04:09:38;;;;;;;8.40;5.50;;;;;;;12.98;100.00;103342.06;7391393;19;20499;-60
2022/08/10 04:12:24;;;;;;;6.83;4.67;;;;;;;13.01;100.00;103338.78;7378636;19;20463;-60
2022/08/10 04:14:53;;;;;;;10.53;5.40;;;;;;;13.03;100.00;103345.00;7393220;19;20742;-60
2022/08/10 04:17:25;;;;;;;6.30;4.20;;;;;;;13.01;100.00;103337.09;7378384;19;20734;-60
2022/08/10 04:20:20;;;;;;;5.70;3.70;;;;;;;13.02;100.00;103336.31;7390903;19;20786;-60
2022/08/10 04:22:55;;;;;;;5.20;3.87;;;;;;;12.98;100.00;103342.06;7378498;19;20403;-60
2022/08/10 04:25:25;;;;;;;18.43;10.33;;;;;;;13.09;100.00;103316.94;7393033;19;20396;-60
2022/08/10 04:27:55;;;;;;;8.97;5.57;;;;;;;13.12;100.00;103288.63;7379052;19;20411;-59
2022/08/10 04:30:25;;;;;;;21.50;12.17;;;;;;;13.21;100.00;103273.75;7390427;19;20416;-60
2022/08/10 04:32:57;;;;;;;35.30;18.47;;;;;;;13.28;100.00;103264.69;7378742;19;20426;-60
2022/08/10 04:35:28;;;;;;;8.17;5.90;;;;;;;13.33;100.00;103263.31;7392748;19;20396;-60
2022/08/10 04:38:00;;;;;;;13.50;7.50;;;;;;;13.40;100.00;103271.53;7385588;19;20459;-60
2022/08/10 04:40:30;;;;;;;23.23;12.30;;;;;;;13.41;100.00;103270.75;7397385;19;20423;-60
2022/08/10 04:43:01;;;;;;;10.60;5.70;;;;;;;13.37;100.00;103286.09;7386122;19;20402;-60
2022/08/10 04:45:40;;;;;;;9.30;5.90;;;;;;;13.40;100.00;103293.19;7403657;19;20423;-60
2022/08/10 04:48:20;;;;;;;10.00;5.60;;;;;;;13.47;100.00;103286.75;7385256;19;20420;-60
2022/08/10 04:51:10;;;;;;;8.27;4.50;;;;;;;13.45;100.00;103294.44;7397097;19;20397;-60
2022/08/10 04:53:50;;;;;;;6.27;4.60;;;;;;;13.48;100.00;103298.94;7385188;19;20408;-60
2022/08/10 04:56:34;;;;;;;7.40;4.90;;;;;;;13.54;100.00;103298.47;7399683;19;20410;-60
2022/08/10 04:59:04;;;;;;;9.80;4.00;;;;;;;13.56;100.00;103297.81;7384629;19;20442;-60
2022/08/10 05:01:34;;;;;;;10.03;4.50;;;;;;;13.59;100.00;103292.81;7399314;19;20399;-60
2022/08/10 05:04:24;;;;;;;7.63;4.47;;;;;;;13.61;100.00;103280.88;7398646;19;20418;-60
2022/08/10 05:07:11;;;;;;;8.63;3.93;;;;;;;13.66;100.00;103273.41;7385428;19;20384;-60
2022/08/10 05:09:49;;;;;;;4.43;3.73;;;;;;;13.68;100.00;103251.03;7396856;19;20470;-59
2022/08/10 05:12:36;;;;;;;5.63;4.00;;;;;;;13.71;100.00;103178.63;7385606;19;20403;-60
2022/08/10 05:15:08;;;;;;;7.70;4.20;;;;;;;13.75;100.00;103158.97;7399138;19;20401;-60
2022/08/10 05:17:39;;;;;;;4.80;3.30;;;;;;;13.85;100.00;103135.44;7385378;19;20421;-60
2022/08/10 05:20:10;;;;;;;5.30;3.67;;;;;;;13.94;100.00;103113.50;7395954;19;20415;-60
2022/08/10 05:22:42;;;;;;;5.43;4.00;;;;;;;13.98;100.00;103097.31;7384958;19;20497;-60
2022/08/10 05:25:16;;;;;;;4.97;3.33;;;;;;;14.00;100.00;103077.56;7398782;19;20711;-60
2022/08/10 05:27:46;;;;;;;5.97;4.03;;;;;;;14.08;100.00;103033.91;7379840;19;20425;-60
2022/08/10 05:30:21;;;;;;;6.00;4.03;;;;;;;14.17;100.00;102920.28;7395623;19;20436;-60
2022/08/10 05:32:51;;;;;;;5.63;3.97;;;;;;;14.28;100.00;102897.56;7384588;19;20738;-60
2022/08/10 05:35:28;;;;;;;6.23;3.50;;;;;;;14.42;100.00;102875.91;7398469;19;20402;-60
2022/08/10 05:38:18;;;;;;;6.83;3.87;;;;;;;14.52;100.00;102868.69;7383258;19;20424;-60
2022/08/10 05:40:51;;;;;;;9.50;4.20;;;;;;;14.53;100.00;102862.69;7395250;19;20415;-60
2022/08/10 05:43:22;;;;;;;6.97;3.90;;;;;;;14.62;100.00;102862.34;7383816;19;20418;-60
2022/08/10 05:45:53;;;;;;;7.13;3.97;;;;;;;14.66;100.00;102852.19;7397567;19;20923;-60
2022/08/10 05:48:43;;;;;;;7.87;3.43;;;;;;;14.71;100.00;102836.88;7381095;19;20407;-60
2022/08/10 05:51:29;;;;;;;6.00;3.73;;;;;;;14.95;100.00;102832.25;7395635;19;20389;-60
2022/08/10 05:53:59;;;;;;;8.40;5.20;;;;;;;15.08;100.00;102840.72;7383524;19;20415;-60
2022/08/10 05:56:40;;;;;;;5.47;3.73;;;;;;;15.21;100.00;102848.41;7397790;19;20414;-60
2022/08/10 05:59:30;;;;;;;8.03;4.17;;;;;;;15.45;100.00;102854.88;7394509;19;20419;-60
2022/08/10 06:02:24;;;;;;;6.53;4.40;;;;;;;15.50;100.00;102885.53;7383719;19;20516;-60
2022/08/10 06:05:07;;;;;;;13.60;7.93;;;;;;;15.58;100.00;102903.28;7397257;19;20909;-60
2022/08/10 06:07:41;;;;;;;31.57;19.73;;;;;;;15.68;100.00;102930.72;7383749;19;20413;-60
2022/08/10 06:10:15;;;;;;;25.43;16.50;;;;;;;15.88;100.00;102950.00;7397326;19;20430;-60
2022/08/10 06:15:59;;;;;;;28.63;15.00;;;;;;;15.98;100.00;103004.41;7397419;19;20424;-60
2022/08/10 06:18:28;;;;;;;10.80;6.87;;;;;;;16.09;100.00;103037.97;7382566;19;20428;-60
2022/08/10 06:20:59;;;;;;;8.57;3.50;;;;;;;16.10;100.00;103073.59;7399236;19;20378;-60
2022/08/10 06:23:30;;;;;;;8.60;4.70;;;;;;;16.17;100.00;103104.38;7382516;19;20487;-60
2022/08/10 06:25:59;;;;;;;10.17;7.00;;;;;;;16.32;100.00;103131.25;7396113;19;20375;-60
2022/08/10 06:28:47;;;;;;;11.73;7.13;;;;;;;16.50;100.00;103172.19;7382595;19;20970;-60
2022/08/10 06:31:31;;;;;;;5.47;3.13;;;;;;;16.57;100.00;103216.00;7398408;19;20409;-60
2022/08/10 06:34:21;;;;;;;7.63;4.27;;;;;;;16.73;100.00;103232.50;7381659;19;20411;-60
2022/08/10 06:36:51;;;;;;;10.53;4.60;;;;;;;16.81;100.00;103249.47;7398190;19;20474;-60
2022/08/10 06:39:21;;;;;;;10.93;4.17;;;;;;;16.97;100.00;103268.59;7380914;19;20416;-60
2022/08/10 06:42:13;;;;;;;9.87;4.20;;;;;;;17.16;100.00;103280.94;7381658;19;20950;-60
2022/08/10 06:44:55;;;;;;;7.63;2.80;;;;;;;17.30;100.00;103304.25;7399289;19;20400;-60
2022/08/10 06:47:28;;;;;;;6.80;3.70;;;;;;;17.45;100.00;103305.13;7384952;19;20413;-60
2022/08/10 06:50:02;;;;;;;6.20;3.13;;;;;;;17.52;100.00;103281.13;7393392;19;20417;-60
2022/08/10 06:52:38;;;;;;;12.13;3.30;;;;;;;17.66;100.00;103206.16;7381878;19;20449;-60
2022/08/10 06:55:12;;;;;;;10.90;2.93;;;;;;;17.74;100.00;103125.59;7395904;19;20405;-60
2022/08/10 06:57:47;;;;;;;6.17;2.93;;;;;;;17.85;100.00;103041.69;7361265;19;20414;-60
2022/08/10 07:00:32;;;;;;;21.63;12.60;;;;;;;17.98;100.00;102925.66;7391714;19;20514;-60
2022/08/10 07:03:07;;;;;;;22.63;14.23;;;;;;;18.06;100.00;102838.16;7381384;19;20420;-60
2022/08/10 07:05:41;;;;;;;5.17;2.83;;;;;;;18.06;100.00;102758.06;7395380;19;20394;-60
2022/08/10 07:08:12;;;;;;;7.80;3.40;;;;;;;18.06;100.00;102710.19;7379696;19;20748;-60
2022/08/10 07:10:43;;;;;;;10.53;4.60;;;;;;;18.07;100.00;102696.28;7393124;19;20499;-60
2022/08/10 07:13:18;;;;;;;12.93;4.40;;;;;;;18.14;100.00;102669.59;7380818;19;20773;-60
2022/08/10 07:16:13;;;;;;;4.60;2.20;;;;;;;18.15;100.00;102642.63;7394212;19;20391;-60
2022/08/10 07:18:44;;;;;;;7.63;2.83;;;;;;;18.21;100.00;102647.22;7373470;19;20434;-60
2022/08/10 07:21:14;;;;;;;9.20;2.40;;;;;;;18.22;100.00;102649.88;7398089;19;20393;-60
2022/08/10 07:23:46;;;;;;;5.17;3.03;;;;;;;18.25;100.00;102606.44;7367821;19;20429;-60
2022/08/10 07:26:29;;;;;;;3.70;2.30;;;;;;;18.28;100.00;102547.38;7394647;19;20409;-60
2022/08/10 07:28:59;;;;;;;8.20;3.10;;;;;;;18.37;100.00;102507.63;7379676;19;20514;-60
2022/08/10 07:31:32;;;;;;;7.43;2.90;;;;;;;18.44;100.00;102439.09;7393106;19;20388;-60
2022/08/10 07:34:23;;;;;;;10.10;3.70;;;;;;;18.55;100.00;102371.50;7383594;19;20422;-60
2022/08/10 07:37:01;;;;;;;9.20;2.57;;;;;;;18.63;100.00;102322.13;7379881;19;20388;-65
2022/08/10 07:39:33;;;;;;;4.37;1.93;;;;;;;18.68;100.00;102283.97;7392190;19;20478;-60
2022/08/10 07:42:24;;;;;;;5.00;2.00;;;;;;;18.79;100.00;102238.97;7385732;19;20403;-60
2022/08/10 07:44:54;;;;;;;8.57;2.77;;;;;;;18.82;100.00;102184.16;7393977;19;20845;-60
2022/08/10 07:47:32;;;;;;;7.13;2.20;;;;;;;18.85;100.00;102145.94;7379934;19;20415;-60
2022/08/10 07:50:23;;;;;;;7.13;2.90;;;;;;;18.97;100.00;102134.06;7391956;19;20411;-60
2022/08/10 07:52:53;;;;;;;9.00;1.67;;;;;;;19.05;100.00;102095.06;7379394;19;20941;-60
2022/08/10 07:55:23;;;;;;;5.50;2.30;;;;;;;19.11;100.00;102054.28;7393544;19;20380;-60
2022/08/10 07:58:13;;;;;;;3.67;2.00;;;;;;;19.20;100.00;102014.41;7377738;19;20430;-60
2022/08/10 08:00:43;;;;;;;4.80;2.20;;;;;;;19.26;100.00;101987.50;7391662;19;20419;-60
2022/08/10 08:03:15;;;;;;;6.03;2.50;;;;;;;19.35;100.00;101972.06;7385619;19;20430;-60
2022/08/10 08:05:46;;;;;;;8.17;1.97;;;;;;;19.28;100.00;101909.97;7393225;19;20382;-60
2022/08/10 08:08:33;;;;;;;6.10;2.20;;;;;;;19.41;100.00;101884.97;7382490;19;20450;-60
2022/08/10 08:11:03;;;;;;;4.40;1.40;;;;;;;19.49;100.00;101760.41;7394979;19;20396;-60
2022/08/10 08:13:33;;;;;;;4.23;1.77;;;;;;;19.64;100.00;101727.56;7359277;19;20427;-60
2022/08/10 08:16:04;;;;;;;7.30;1.80;;;;;;;19.63;100.00;101676.06;7392801;19;20922;-60
2022/08/10 08:18:54;;;;;;;15.50;5.57;;;;;;;19.74;100.00;101660.56;7370650;19;20486;-61
2022/08/10 08:21:44;;;;;;;18.17;7.70;;;;;;;19.78;100.00;101644.91;7397620;19;20384;-60
2022/08/10 08:24:35;;;;;;;21.13;7.33;;;;;;;19.88;100.00;101632.00;7393638;19;20431;-60
2022/08/10 08:27:06;;;;;;;3.20;1.30;;;;;;;19.92;100.00;101625.94;7383930;19;20388;-60
2022/08/10 08:29:38;;;;;;;4.43;1.50;;;;;;;20.05;100.00;101612.22;7394619;19;20427;-60
2022/08/10 08:32:08;;;;;;;11.43;4.43;;;;;;;20.20;100.00;101608.97;7377314;19;20396;-60
2022/08/10 08:34:42;;;;;;;5.83;2.70;;;;;;;20.33;100.00;101611.78;7392458;19;20388;-60
2022/08/10 08:37:13;;;;;;;6.13;3.90;;;;;;;20.32;100.00;101618.75;7382989;19;20379;-61
2022/08/10 08:40:03;;;;;;;13.83;3.90;;;;;;;20.32;100.00;101616.16;7389715;19;20399;-60
2022/08/10 08:43:08;;;;;;;3.77;1.60;;;;;;;20.39;100.00;101608.38;7383674;19;20410;-60
2022/08/10 08:45:49;;;;;;;4.13;1.37;;;;;;;20.50;100.00;101605.03;7391942;19;20418;-60
2022/08/10 08:48:55;;;;;;;6.07;2.00;;;;;;;20.63;100.00;101611.31;7386003;19;20429;-60
2022/08/10 08:51:37;;;;;;;27.90;10.23;;;;;;;20.71;100.00;101629.78;7391713;19;20386;-60
2022/08/10 08:54:37;;;;;;;3.87;2.17;;;;;;;20.71;100.00;101660.38;7390954;19;20732;-60
2022/08/10 08:57:13;;;;;;;5.03;2.20;;;;;;;20.81;100.00;101671.88;7387231;19;20390;-60
2022/08/10 09:00:08;;;;;;;3.47;1.40;;;;;;;20.83;100.00;101671.03;7389764;19;20402;-60
2022/08/10 09:03:03;;;;;;;4.80;1.50;;;;;;;20.86;100.00;101696.44;7386184;19;20415;-60
2022/08/10 09:05:42;;;;;;;10.90;6.77;;;;;;;21.05;100.00;101676.56;7391780;19;20387;-60
2022/08/10 09:08:53;;;;;;;12.67;5.10;;;;;;;21.20;100.00;101686.38;7380373;19;20433;-61
2022/08/10 09:11:32;;;;;;;16.83;6.53;;;;;;;21.25;100.00;101725.78;7391334;19;20411;-60
2022/08/10 09:14:10;;;;;;;20.33;13.23;;;;;;;21.23;100.00;101748.50;7381558;19;20422;-60
2022/08/10 09:16:49;;;;;;;10.77;6.27;;;;;;;21.34;100.00;101752.16;7391579;19;20917;-60
2022/08/10 09:19:27;;;;;;;9.40;5.00;;;;;;;21.54;100.00;101747.13;7385237;19;20410;-60
2022/08/10 09:22:09;;;;;;;6.27;1.70;;;;;;;21.64;100.00;101756.00;7387211;19;20383;-60
2022/08/10 09:24:59;;;;;;;5.50;2.07;;;;;;;21.70;100.00;101771.84;7398693;19;20395;-61
2022/08/10 09:27:35;;;;;;;5.53;2.07;;;;;;;21.71;100.00;101869.91;7393527;19;20411;-61
2022/08/10 09:30:06;;;;;;;5.53;2.20;;;;;;;21.76;100.00;101944.38;7395574;19;20422;-60
2022/08/10 09:32:42;;;;;;;3.37;1.30;;;;;;;21.68;100.00;102012.50;7387778;19;20427;-60
2022/08/10 09:35:41;;;;;;;4.43;1.80;;;;;;;21.73;100.00;101990.75;7398587;19;20394;-60
2022/08/10 09:38:37;;;;;;;5.90;1.97;;;;;;;21.76;100.00;102053.78;7389559;19;20402;-60
2022/08/10 09:41:18;;;;;;;3.23;1.77;;;;;;;21.83;100.00;102080.19;7397695;19;20387;-60
2022/08/10 09:43:54;;;;;;;3.53;1.33;;;;;;;21.92;100.00;102060.16;7392604;19;20403;-60
2022/08/10 09:46:41;;;;;;;5.97;1.73;;;;;;;21.91;100.00;102056.69;7397703;19;20391;-60
2022/08/10 09:49:19;;;;;;;8.90;2.77;;;;;;;21.97;100.00;102064.66;7390356;19;20458;-60
2022/08/10 09:52:14;;;;;;;3.00;1.33;;;;;;;22.18;100.00;102068.44;7392394;19;20395;-61
2022/08/10 09:55:05;;;;;;;5.77;2.03;;;;;;;22.32;100.00;102059.84;7397584;19;20474;-60
2022/08/10 09:57:44;;;;;;;3.47;1.70;;;;;;;22.29;100.00;102059.81;7388320;19;20419;-60
2022/08/10 10:00:25;;;;;;;3.10;1.70;;;;;;;22.36;100.00;102101.97;7394391;19;20796;-60
2022/08/10 10:03:05;;;;;;;3.73;1.73;;;;;;;22.31;100.00;102127.31;7392362;19;20426;-60
2022/08/10 10:05:47;;;;;;;4.77;1.50;;;;;;;22.45;100.00;102108.25;7397380;19;20457;-60
2022/08/10 10:08:34;;;;;;;9.03;2.27;;;;;;;22.52;100.00;102136.41;7391269;19;20423;-60
2022/08/10 10:11:17;;;;;;;6.43;2.50;;;;;;;22.37;100.00;102127.38;7397162;19;20467;-60
2022/08/10 10:14:01;;;;;;;43.87;12.27;;;;;;;22.58;100.00;102114.56;7384718;19;20461;-60
2022/08/10 10:16:45;;;;;;;4.37;1.80;;;;;;;22.70;100.00;102114.72;7394454;19;20423;-60
2022/08/10 10:19:27;;;;;;;13.17;4.33;;;;;;;22.75;100.00;102136.69;7382574;19;20458;-60
2022/08/10 10:22:05;;;;;;;4.67;1.33;;;;;;;22.88;100.00;102152.66;7386044;19;20384;-62
2022/08/10 10:24:43;;;;;;;3.60;1.77;;;;;;;22.97;100.00;102165.03;7395272;19;20397;-60
2022/08/10 10:27:22;;;;;;;4.17;1.67;;;;;;;23.17;100.00;102175.81;7390921;19;20392;-61
2022/08/10 10:29:59;;;;;;;8.30;1.90;;;;;;;23.29;100.00;102168.00;7394215;19;20414;-60
2022/08/10 10:32:36;;;;;;;3.43;1.80;;;;;;;23.32;100.00;102178.63;7382478;19;20809;-60
2022/08/10 10:35:12;;;;;;;4.40;1.83;;;;;;;23.31;100.00;102191.78;7395001;19;20394;-60
2022/08/10 10:37:42;;;;;;;5.10;1.67;;;;;;;23.28;100.00;102196.97;7384064;19;20797;-60
2022/08/10 10:40:40;;;;;;;3.10;1.60;;;;;;;23.42;100.00;102195.41;7394379;19;20522;-60
2022/08/10 10:43:25;;;;;;;3.50;1.70;;;;;;;23.63;100.00;102199.13;7387825;19;20944;-60
2022/08/10 10:46:05;;;;;;;3.00;1.50;;;;;;;23.69;100.00;102222.03;7395931;19;20387;-60
2022/08/10 10:48:40;;;;;;;3.37;1.27;;;;;;;23.41;100.00;102230.50;7386925;19;20422;-60
2022/08/10 10:51:16;;;;;;;4.40;1.23;;;;;;;23.60;100.00;102207.00;7396030;19;20427;-60
2022/08/10 10:53:51;;;;;;;2.40;1.00;;;;;;;23.64;100.00;102243.03;7388939;19;20435;-60
2022/08/10 10:56:28;;;;;;;4.43;1.40;;;;;;;23.92;100.00;102226.63;7398009;19;20391;-60
2022/08/10 10:59:09;;;;;;;3.40;1.43;;;;;;;23.91;100.00;102230.13;7388804;19;20431;-60
2022/08/10 11:02:11;;;;;;;2.40;0.80;;;;;;;23.85;100.00;102242.38;7379704;19;20922;-60
2022/08/10 11:04:45;;;;;;;3.60;1.40;;;;;;;24.08;100.00;102249.66;7394721;19;20455;-59
2022/08/10 11:07:18;;;;;;;3.37;1.27;;;;;;;24.03;100.00;102253.09;7389558;19;20405;-59
2022/08/10 11:09:57;;;;;;;22.03;18.50;;;;;;;24.09;100.00;102255.81;7393462;19;20430;-59
2022/08/10 11:12:51;;;;;;;2.50;1.10;;;;;;;24.07;100.00;102253.16;7388044;19;20435;-59
2022/08/10 11:15:25;;;;;;;11.10;7.50;;;;;;;24.31;100.00;102248.97;7395189;19;20383;-59
2022/08/10 11:18:03;;;;;;;8.13;2.83;;;;;;;24.49;100.00;102235.03;7388603;19;20426;-59
2022/08/10 11:20:38;;;;;;;6.50;2.70;;;;;;;24.49;100.00;102237.66;7395349;19;20475;-60
2022/08/10 11:23:19;;;;;;;5.10;1.83;;;;;;;24.54;100.00;102241.22;7381294;19;20494;-60
2022/08/10 11:25:56;;;;;;;5.03;1.60;;;;;;;24.50;100.00;102230.66;7394747;19;20744;-59
2022/08/10 11:28:32;;;;;;;6.33;3.10;;;;;;;24.60;100.00;102221.03;7382476;19;20437;-59
2022/08/10 11:31:11;;;;;;;3.63;1.57;;;;;;;24.62;100.00;102235.97;7394710;19;20394;-59
2022/08/10 11:33:53;;;;;;;2.30;1.00;;;;;;;24.49;100.00;102249.94;7386632;19;20434;-59
2022/08/10 11:36:47;;;;;;;3.90;1.10;;;;;;;24.40;100.00;102238.47;7394223;19;20375;-59
2022/08/10 11:39:21;;;;;;;4.00;1.50;;;;;;;24.35;100.00;102218.22;7382076;19;20435;-59
2022/08/10 11:41:55;;;;;;;4.67;1.40;;;;;;;24.32;100.00;102203.28;7393979;19;20382;-59
2022/08/10 11:44:46;;;;;;;2.63;1.10;;;;;;;24.61;100.00;102199.91;7393366;19;20502;-59
2022/08/10 11:47:19;;;;;;;5.03;1.90;;;;;;;24.59;100.00;102225.41;7383430;19;20901;-60
2022/08/10 11:49:55;;;;;;;2.97;1.23;;;;;;;24.71;100.00;102218.44;7392734;19;20416;-59
2022/08/10 11:52:30;;;;;;;5.10;1.73;;;;;;;24.85;100.00;102215.94;7380108;19;20407;-59
2022/08/10 11:55:05;;;;;;;4.83;1.83;;;;;;;24.86;100.00;102213.28;7393768;19;20401;-59
2022/08/10 11:57:36;;;;;;;5.23;1.70;;;;;;;24.92;100.00;102208.03;7373479;19;20415;-59
2022/08/10 12:00:24;;;;;;;4.00;1.23;;;;;;;24.34;100.00;102221.72;7391731;19;20422;-59
2022/08/10 12:03:04;;;;;;;4.40;1.10;;;;;;;24.39;100.00;102207.72;7379015;19;20841;-59
2022/08/10 12:05:39;;;;;;;2.90;1.30;;;;;;;24.52;100.00;102207.78;7393625;19;20392;-59